createdAt,value
2023-04-18T19:40:36.253Z,9.80
2023-04-18T19:42:38.710Z,9.85
2023-04-18T19:44:40.894Z,10.27
2023-04-18T19:46:42.929Z,9.65
2023-04-18T19:48:45.053Z,9.27
2023-04-18T19:50:47.112Z,9.77
2023-04-18T19:52:51.356Z,10.35
2023-04-18T19:54:53.608Z,9.35
2023-04-18T19:56:59.848Z,10.13
2023-04-18T19:59:02.430Z,9.55
2023-04-18T20:01:06.021Z,9.85
2023-04-18T20:03:08.415Z,9.80
2023-04-18T20:05:11.365Z,9.80
2023-04-18T20:07:13.588Z,10.63
2023-04-18T20:09:16.806Z,9.90
2023-04-18T20:11:19.051Z,10.55
2023-04-18T20:13:22.398Z,9.82
2023-04-18T20:15:30.602Z,10.27
2023-04-18T20:17:34.908Z,10.65
2023-04-18T20:19:37.123Z,11.30
2023-04-18T20:21:39.332Z,12.15
2023-04-18T20:23:45.220Z,11.75
2023-04-18T20:25:47.316Z,11.55
2023-04-18T20:27:49.339Z,12.13
2023-04-18T20:29:54.914Z,12.30
2023-04-18T20:31:59.008Z,11.60
2023-04-18T20:34:04.422Z,11.02
2023-04-18T20:36:07.705Z,11.52
2023-04-18T20:38:11.088Z,10.80
2023-04-18T20:40:13.185Z,12.50
2023-04-18T20:42:15.869Z,11.88
2023-04-18T20:44:22.200Z,11.65
2023-04-18T20:46:25.969Z,12.07
2023-04-18T20:48:28.037Z,11.90
2023-04-18T20:50:30.612Z,12.15
2023-04-18T20:52:32.720Z,12.50
2023-04-18T20:54:35.496Z,11.80
2023-04-18T20:56:37.599Z,12.32
2023-04-18T20:58:39.611Z,12.50
2023-04-18T21:00:43.126Z,12.27
2023-04-18T21:02:49.621Z,11.70
2023-04-18T21:04:52.170Z,12.48
2023-04-18T21:06:54.681Z,11.80
2023-04-18T21:08:56.636Z,11.93
2023-04-18T21:10:58.812Z,12.45
2023-04-18T21:13:01.037Z,11.55
2023-04-18T21:15:06.612Z,12.27
2023-04-18T21:17:10.425Z,12.80
2023-04-18T21:19:13.872Z,13.18
2023-04-18T21:21:15.865Z,12.85
2023-04-18T21:23:18.005Z,12.98
2023-04-18T21:25:21.295Z,13.10
2023-04-18T21:27:23.477Z,12.68
2023-04-18T21:29:26.761Z,12.68
2023-04-18T21:31:31.089Z,12.73
2023-04-18T21:33:39.057Z,13.00
2023-04-18T21:35:42.362Z,13.13
2023-04-18T21:37:44.370Z,12.88
2023-04-18T21:39:46.514Z,13.70
2023-04-18T21:41:48.721Z,12.73
2023-04-18T21:43:50.824Z,13.13
2023-04-18T21:45:52.939Z,12.75
2023-04-18T21:47:55.079Z,12.88
2023-04-18T21:49:57.569Z,13.60
2023-04-18T21:52:01.180Z,13.07
2023-04-18T21:54:03.654Z,13.63
2023-04-18T21:56:06.419Z,12.80
2023-04-18T21:58:08.418Z,12.85
2023-04-18T22:00:11.347Z,13.32
2023-04-18T22:02:13.304Z,12.52
2023-04-18T22:04:16.014Z,12.30
2023-04-18T22:06:18.378Z,13.77
2023-04-18T22:08:22.903Z,13.20
2023-04-18T22:10:25.104Z,12.63
2023-04-18T22:12:27.051Z,12.55
2023-04-18T22:14:29.098Z,12.57
2023-04-18T22:16:31.155Z,12.88
2023-04-18T22:18:33.981Z,12.18
2023-04-18T22:20:37.526Z,13.07
2023-04-18T22:22:39.580Z,13.13
2023-04-18T22:24:43.977Z,13.15
2023-04-18T22:26:47.126Z,13.02
2023-04-18T22:28:49.120Z,12.20
2023-04-18T22:30:51.151Z,13.27
2023-04-18T22:32:53.241Z,12.68
2023-04-18T22:34:55.404Z,13.13
2023-04-18T22:36:57.475Z,12.32
2023-04-18T22:38:59.698Z,13.18
2023-04-18T22:41:03.088Z,11.73
2023-04-18T22:43:05.310Z,12.90
2023-04-18T22:45:08.145Z,12.52
2023-04-18T22:47:10.174Z,13.93
2023-04-18T22:49:12.217Z,15.30
2023-04-18T22:51:14.828Z,14.52
2023-04-18T22:53:17.031Z,14.93
2023-04-18T22:55:19.922Z,13.90
2023-04-18T22:57:23.406Z,13.65
2023-04-18T22:59:25.404Z,13.02
2023-04-18T23:01:27.471Z,13.10
2023-04-18T23:03:32.020Z,13.77
2023-04-18T23:05:34.366Z,13.32
2023-04-18T23:07:36.550Z,13.10
2023-04-18T23:09:38.501Z,14.07
2023-04-18T23:11:43.782Z,12.82
2023-04-18T23:13:47.135Z,13.77
2023-04-18T23:15:49.278Z,13.48
2023-04-18T23:17:52.198Z,14.43
2023-04-18T23:19:57.287Z,13.35
2023-04-18T23:21:59.900Z,13.45
2023-04-18T23:24:01.921Z,13.25
2023-04-18T23:26:11.087Z,12.60
2023-04-18T23:28:13.758Z,12.55
2023-04-18T23:30:17.451Z,13.05
2023-04-18T23:32:19.436Z,11.75
2023-04-18T23:34:21.673Z,13.25
2023-04-18T23:36:23.919Z,12.43
2023-04-18T23:38:26.910Z,11.80
2023-04-18T23:40:29.004Z,12.43
2023-04-18T23:42:34.810Z,13.32
2023-04-18T23:44:39.187Z,12.88
2023-04-18T23:46:42.525Z,13.18
2023-04-18T23:48:44.490Z,12.18
2023-04-18T23:50:47.277Z,12.43
2023-04-18T23:52:49.312Z,13.25
2023-04-18T23:54:51.684Z,13.18
2023-04-18T23:56:53.659Z,13.38
2023-04-18T23:58:55.799Z,12.40
